createdAt,value
2022-07-30T00:01:39.753Z,99.60
2022-07-30T00:04:11.602Z,99.80
2022-07-30T00:06:45.154Z,99.60
2022-07-30T00:09:16.862Z,99.90
2022-07-30T00:11:49.593Z,99.90
2022-07-30T00:14:22.251Z,99.90
2022-07-30T00:16:54.786Z,99.90
2022-07-30T00:19:29.339Z,99.30
2022-07-30T00:22:01.925Z,99.80
2022-07-30T00:24:34.561Z,99.60
2022-07-30T00:27:06.951Z,99.90
2022-07-30T00:29:44.936Z,99.90
2022-07-30T00:32:17.311Z,99.90
2022-07-30T00:34:49.548Z,99.90
2022-07-30T00:37:21.978Z,99.90
2022-07-30T00:39:54.595Z,99.90
2022-07-30T00:42:38.051Z,99.90
2022-07-30T00:45:11.715Z,99.90
2022-07-30T00:47:43.911Z,99.90
2022-07-30T00:50:17.001Z,99.90
2022-07-30T00:52:48.895Z,99.90
2022-07-30T00:55:21.496Z,99.90
2022-07-30T00:57:53.243Z,99.90
2022-07-30T01:00:27.513Z,99.90
2022-07-30T01:02:59.315Z,99.90
2022-07-30T01:05:32.083Z,99.90
2022-07-30T01:08:04.320Z,99.90
2022-07-30T01:10:36.197Z,99.90
2022-07-30T01:13:08.873Z,99.90
2022-07-30T01:15:41.391Z,99.90
2022-07-30T01:18:16.429Z,99.90
2022-07-30T01:21:09.527Z,99.90
2022-07-30T01:23:45.944Z,99.90
2022-07-30T01:26:20.454Z,99.90
2022-07-30T01:28:56.295Z,99.90
2022-07-30T01:31:30.029Z,99.90
2022-07-30T01:34:03.090Z,99.90
2022-07-30T01:36:36.726Z,99.90
2022-07-30T01:39:09.546Z,99.90
2022-07-30T01:41:43.694Z,99.90
2022-07-30T01:44:23.955Z,99.90
2022-07-30T01:46:58.776Z,99.90
2022-07-30T01:49:32.330Z,99.90
2022-07-30T01:52:06.027Z,99.90
2022-07-30T01:54:39.372Z,99.90
2022-07-30T01:57:13.436Z,99.90
2022-07-30T01:59:50.255Z,99.90
2022-07-30T02:02:26.746Z,99.90
2022-07-30T02:04:59.562Z,99.90
2022-07-30T02:07:57.394Z,99.90
2022-07-30T02:10:42.031Z,99.90
2022-07-30T02:13:27.383Z,99.90
2022-07-30T02:16:08.468Z,99.90
2022-07-30T02:19:04.512Z,99.90
2022-07-30T02:21:50.518Z,99.90
2022-07-30T02:24:28.387Z,99.90
2022-07-30T02:27:05.267Z,99.90
2022-07-30T02:29:38.485Z,99.90
2022-07-30T02:32:14.917Z,99.90
2022-07-30T02:34:53.763Z,99.90
2022-07-30T02:37:43.023Z,99.90
2022-07-30T02:40:20.194Z,99.90
2022-07-30T02:42:53.110Z,99.90
2022-07-30T02:45:31.019Z,99.90
2022-07-30T02:48:08.974Z,99.90
2022-07-30T02:50:44.525Z,99.90
2022-07-30T02:53:18.108Z,99.90
2022-07-30T02:55:54.429Z,99.90
2022-07-30T02:58:28.074Z,99.90
2022-07-30T03:01:03.235Z,99.90
2022-07-30T03:03:36.411Z,99.90
2022-07-30T03:06:10.641Z,99.90
2022-07-30T03:08:44.646Z,99.90
2022-07-30T03:11:21.047Z,99.90
2022-07-30T03:13:52.977Z,99.90
2022-07-30T03:16:26.927Z,99.90
2022-07-30T03:19:06.655Z,99.90
2022-07-30T03:21:41.741Z,99.90
2022-07-30T03:24:14.660Z,99.90
2022-07-30T03:26:48.590Z,99.90
2022-07-30T03:29:24.555Z,99.90
2022-07-30T03:31:58.756Z,99.90
2022-07-30T03:34:36.252Z,99.90
2022-07-30T03:37:09.229Z,99.90
2022-07-30T03:39:42.228Z,99.90
2022-07-30T03:42:16.331Z,99.90
2022-07-30T03:44:50.464Z,99.90
2022-07-30T03:47:23.642Z,99.90
2022-07-30T03:49:57.114Z,99.90
2022-07-30T03:52:30.060Z,99.90
2022-07-30T03:55:03.718Z,99.90
2022-07-30T03:57:42.939Z,99.90
2022-07-30T04:00:15.973Z,99.90
2022-07-30T04:02:58.250Z,99.90
2022-07-30T04:05:41.417Z,99.90
2022-07-30T04:08:17.313Z,99.90
2022-07-30T04:10:51.407Z,99.90
2022-07-30T04:13:48.570Z,99.90
2022-07-30T04:16:47.067Z,99.90
2022-07-30T04:19:28.738Z,99.90
2022-07-30T04:22:02.039Z,99.90
2022-07-30T04:24:38.772Z,99.90
2022-07-30T04:27:11.693Z,99.90
2022-07-30T04:29:44.305Z,99.90
2022-07-30T04:32:17.654Z,99.90
2022-07-30T04:34:54.473Z,99.90
2022-07-30T04:37:47.070Z,99.90
2022-07-30T04:40:18.850Z,99.90
2022-07-30T04:42:51.833Z,99.90
2022-07-30T04:45:24.019Z,99.90
2022-07-30T04:48:02.731Z,99.90
2022-07-30T04:50:55.475Z,99.90
2022-07-30T04:53:29.813Z,99.90
2022-07-30T04:56:06.826Z,99.90
2022-07-30T04:58:41.315Z,99.90
2022-07-30T05:01:35.936Z,99.90
2022-07-30T05:04:14.011Z,99.90
2022-07-30T05:06:47.993Z,99.90
2022-07-30T05:09:21.208Z,99.90
2022-07-30T05:11:54.423Z,99.90
2022-07-30T05:14:27.526Z,99.90
2022-07-30T05:16:59.966Z,99.90
2022-07-30T05:19:34.077Z,99.90
2022-07-30T05:22:06.848Z,99.90
2022-07-30T05:24:40.281Z,99.90
2022-07-30T05:27:13.185Z,99.90
2022-07-30T05:29:44.966Z,99.90
2022-07-30T05:32:25.637Z,99.90
2022-07-30T05:34:59.303Z,99.90
2022-07-30T05:37:35.335Z,99.90
2022-07-30T05:40:08.109Z,99.90
2022-07-30T05:43:01.641Z,99.90
2022-07-30T05:45:34.506Z,99.90
2022-07-30T05:48:07.379Z,99.90
2022-07-30T05:50:39.262Z,99.90
2022-07-30T05:53:11.891Z,99.90
2022-07-30T05:56:16.248Z,99.90
2022-07-30T05:59:00.190Z,99.90
2022-07-30T06:01:54.924Z,99.90
2022-07-30T06:04:35.831Z,99.90
2022-07-30T06:07:10.115Z,99.90
2022-07-30T06:09:42.786Z,99.90
2022-07-30T06:12:15.551Z,99.90
2022-07-30T06:14:48.563Z,99.90
2022-07-30T06:17:27.895Z,99.90
2022-07-30T06:20:17.091Z,99.90
2022-07-30T06:23:06.023Z,99.90
2022-07-30T06:25:53.664Z,99.90
2022-07-30T06:28:37.632Z,99.90
2022-07-30T06:31:19.848Z,99.90
2022-07-30T06:33:52.295Z,99.90
2022-07-30T06:36:24.862Z,99.90
2022-07-30T06:39:04.632Z,99.90
2022-07-30T06:41:59.141Z,99.90
2022-07-30T06:44:54.541Z,99.90
2022-07-30T06:47:31.649Z,99.90
2022-07-30T06:50:04.847Z,99.90
2022-07-30T06:52:37.701Z,99.90
2022-07-30T06:55:10.253Z,99.90
2022-07-30T06:57:50.185Z,99.90
2022-07-30T07:00:43.346Z,99.90
2022-07-30T07:03:17.775Z,99.90
2022-07-30T07:05:50.678Z,97.80
2022-07-30T07:08:22.501Z,95.00
2022-07-30T07:11:00.643Z,93.30
2022-07-30T07:13:38.203Z,92.60
2022-07-30T07:16:14.534Z,92.10
2022-07-30T07:18:51.063Z,91.10
2022-07-30T07:21:23.898Z,90.50
2022-07-30T07:24:00.920Z,89.10
2022-07-30T07:26:52.647Z,88.40
2022-07-30T07:29:25.889Z,85.50
2022-07-30T07:32:06.001Z,83.40
2022-07-30T07:34:42.747Z,80.60
2022-07-30T07:37:16.491Z,79.50
2022-07-30T07:39:48.362Z,81.10
2022-07-30T07:45:15.992Z,82.60
2022-07-30T07:48:05.537Z,80.20
2022-07-30T07:51:00.379Z,76.80
2022-07-30T07:53:35.592Z,78.10
2022-07-30T07:56:10.157Z,77.50
2022-07-30T07:58:44.087Z,75.50
2022-07-30T08:01:18.241Z,76.50
2022-07-30T08:04:26.074Z,76.70
2022-07-30T08:07:15.755Z,77.70
2022-07-30T08:10:17.195Z,75.80
2022-07-30T08:13:48.587Z,75.20
2022-07-30T08:16:21.981Z,74.60
2022-07-30T08:19:23.449Z,72.40
2022-07-30T08:22:08.398Z,75.20
2022-07-30T08:24:41.217Z,76.20
2022-07-30T08:27:13.751Z,77.00
2022-07-30T08:29:45.866Z,75.30
2022-07-30T08:32:18.627Z,73.70
2022-07-30T08:34:52.010Z,71.10
2022-07-30T08:37:26.677Z,71.60
2022-07-30T08:39:59.745Z,73.10
2022-07-30T08:42:34.834Z,73.50
2022-07-30T08:45:08.930Z,70.70
2022-07-30T08:47:43.111Z,69.60
2022-07-30T08:50:16.741Z,66.60
2022-07-30T08:53:09.489Z,66.20
2022-07-30T08:55:43.393Z,65.10
2022-07-30T08:58:37.821Z,63.70
2022-07-30T09:01:10.760Z,62.50
2022-07-30T09:03:44.101Z,64.30
2022-07-30T09:06:17.458Z,61.50
2022-07-30T09:08:49.557Z,64.20
2022-07-30T09:11:23.323Z,64.10
2022-07-30T09:14:08.659Z,62.60
2022-07-30T09:16:42.226Z,62.60
2022-07-30T09:19:20.674Z,61.50
2022-07-30T09:22:01.153Z,61.50
2022-07-30T09:24:58.809Z,59.70
2022-07-30T09:27:51.088Z,64.00
2022-07-30T09:30:53.862Z,65.10
2022-07-30T09:33:49.845Z,63.10
2022-07-30T09:36:41.116Z,65.40
2022-07-30T09:39:37.666Z,65.30
2022-07-30T09:42:23.761Z,63.80
2022-07-30T09:45:07.931Z,61.90
2022-07-30T09:47:45.438Z,61.60
2022-07-30T09:50:30.362Z,60.90
2022-07-30T09:53:11.929Z,61.10
2022-07-30T09:55:47.531Z,60.30
2022-07-30T09:58:26.571Z,59.90
2022-07-30T10:01:02.492Z,60.10
2022-07-30T10:03:53.870Z,59.20
2022-07-30T10:06:48.146Z,58.00
2022-07-30T10:09:37.103Z,58.60
2022-07-30T10:12:11.923Z,58.10
2022-07-30T10:14:49.968Z,58.90
2022-07-30T10:17:23.907Z,58.10
2022-07-30T10:20:30.850Z,58.60
2022-07-30T10:23:32.908Z,58.10
2022-07-30T10:26:32.730Z,58.50
2022-07-30T10:29:33.757Z,59.00
2022-07-30T10:32:06.771Z,58.70
2022-07-30T10:34:43.999Z,58.50
2022-07-30T10:37:16.948Z,58.70
2022-07-30T10:40:05.332Z,58.40
2022-07-30T10:42:57.780Z,58.80
2022-07-30T10:45:56.557Z,59.30
2022-07-30T10:48:32.165Z,59.10
2022-07-30T10:51:04.246Z,59.30
2022-07-30T10:53:41.552Z,59.20
2022-07-30T10:56:25.454Z,59.30
2022-07-30T10:59:10.871Z,58.60
2022-07-30T11:01:53.539Z,59.00
2022-07-30T11:04:29.623Z,59.10
2022-07-30T11:07:23.885Z,59.70
2022-07-30T11:10:08.868Z,59.60
2022-07-30T11:12:42.118Z,60.50
2022-07-30T11:15:19.183Z,61.30
2022-07-30T11:18:01.618Z,60.70
2022-07-30T11:20:33.979Z,60.70
2022-07-30T11:23:35.693Z,61.40
2022-07-30T11:26:07.872Z,62.00
2022-07-30T11:28:49.287Z,62.20
2022-07-30T11:31:54.948Z,63.70
2022-07-30T11:34:28.358Z,64.90
2022-07-30T11:37:22.339Z,64.90
2022-07-30T11:40:04.619Z,63.50
2022-07-30T11:42:37.767Z,61.60
2022-07-30T11:45:15.717Z,62.70
2022-07-30T11:47:54.209Z,62.00
2022-07-30T11:50:32.422Z,63.70
2022-07-30T11:53:07.797Z,62.30
2022-07-30T11:55:45.777Z,61.90
2022-07-30T11:58:36.047Z,61.70
2022-07-30T12:01:16.921Z,60.90
2022-07-30T12:03:48.860Z,60.70
2022-07-30T12:06:21.735Z,60.80
2022-07-30T12:08:58.469Z,59.80
2022-07-30T12:11:35.463Z,60.60
2022-07-30T12:14:07.606Z,62.00
2022-07-30T12:16:42.975Z,61.10
2022-07-30T12:19:14.897Z,62.40
2022-07-30T12:21:52.495Z,63.00
2022-07-30T12:24:27.131Z,63.50
2022-07-30T12:27:08.859Z,61.90
2022-07-30T12:29:42.281Z,63.50
2022-07-30T12:32:14.582Z,62.40
2022-07-30T12:34:56.801Z,62.30
2022-07-30T12:37:29.652Z,62.30
2022-07-30T12:40:15.112Z,62.40
2022-07-30T12:42:54.201Z,61.90
2022-07-30T12:45:52.037Z,62.50
2022-07-30T12:48:24.760Z,62.80
2022-07-30T12:51:07.483Z,62.40
2022-07-30T12:53:40.320Z,62.30
2022-07-30T12:56:20.545Z,62.10
2022-07-30T12:58:54.404Z,62.90
2022-07-30T13:01:43.838Z,63.20
2022-07-30T13:04:17.532Z,63.40
2022-07-30T13:07:12.525Z,63.20
2022-07-30T13:09:45.203Z,63.70
2022-07-30T13:12:18.460Z,63.50
2022-07-30T13:14:51.193Z,63.80
2022-07-30T13:17:23.329Z,63.30
2022-07-30T13:19:56.247Z,62.50
2022-07-30T13:22:28.670Z,61.40
2022-07-30T13:25:01.137Z,60.20
2022-07-30T13:27:33.950Z,60.50
2022-07-30T13:30:07.108Z,61.00
2022-07-30T13:32:40.015Z,61.40
2022-07-30T13:35:11.872Z,61.60
2022-07-30T13:37:44.537Z,61.60
2022-07-30T13:40:16.389Z,60.60
2022-07-30T13:42:49.056Z,62.40
2022-07-30T13:45:21.535Z,60.70
2022-07-30T13:47:53.392Z,61.30
2022-07-30T13:50:26.170Z,60.70
2022-07-30T13:53:02.096Z,61.80
2022-07-30T13:55:35.863Z,60.60
2022-07-30T13:58:08.220Z,60.50
2022-07-30T14:00:40.888Z,61.50
2022-07-30T14:03:13.651Z,61.80
2022-07-30T14:05:45.742Z,61.70
2022-07-30T14:08:18.658Z,60.70
2022-07-30T14:10:50.938Z,60.40
2022-07-30T14:13:22.762Z,60.60
2022-07-30T14:15:55.153Z,60.60
2022-07-30T14:18:27.483Z,60.80
2022-07-30T14:21:00.183Z,60.30
2022-07-30T14:23:32.877Z,60.20
2022-07-30T14:26:04.859Z,60.40
2022-07-30T14:28:37.526Z,60.80
2022-07-30T14:31:09.336Z,60.90
2022-07-30T14:33:42.415Z,61.50
2022-07-30T14:36:15.334Z,61.60
2022-07-30T14:38:47.622Z,61.90
2022-07-30T14:41:19.472Z,61.70
2022-07-30T14:43:52.469Z,62.60
2022-07-30T14:46:24.344Z,62.30
2022-07-30T14:51:34.639Z,62.90
2022-07-30T14:54:08.262Z,62.90
2022-07-30T14:56:40.644Z,63.70
2022-07-30T14:59:13.638Z,64.70
2022-07-30T15:01:47.471Z,63.80
2022-07-30T15:04:21.111Z,63.50
2022-07-30T15:06:53.099Z,63.60
2022-07-30T15:09:25.920Z,63.50
2022-07-30T15:12:08.858Z,63.70
2022-07-30T15:14:43.729Z,62.80
2022-07-30T15:17:16.883Z,62.20
2022-07-30T15:19:51.053Z,62.60
2022-07-30T15:22:23.583Z,61.90
2022-07-30T15:24:56.339Z,60.90
2022-07-30T15:27:34.013Z,62.10
2022-07-30T15:30:07.063Z,61.50
2022-07-30T15:32:38.971Z,61.50
2022-07-30T15:35:14.041Z,61.90
2022-07-30T15:37:46.598Z,62.80
2022-07-30T15:40:18.956Z,62.70
2022-07-30T15:42:51.922Z,62.80
2022-07-30T15:45:25.158Z,62.70
2022-07-30T15:47:57.167Z,62.10
2022-07-30T15:50:30.076Z,62.20
2022-07-30T15:53:07.986Z,62.20
2022-07-30T15:55:47.047Z,62.70
2022-07-30T15:58:20.207Z,61.80
2022-07-30T16:00:52.438Z,63.40
2022-07-30T16:03:25.223Z,62.00
2022-07-30T16:05:57.617Z,62.20
2022-07-30T16:08:29.459Z,61.50
2022-07-30T16:11:04.839Z,61.60
2022-07-30T16:13:38.119Z,62.30
2022-07-30T16:16:10.088Z,62.30
2022-07-30T16:18:42.873Z,61.50
2022-07-30T16:21:15.636Z,60.70
2022-07-30T16:23:47.946Z,61.00
2022-07-30T16:26:20.784Z,61.90
2022-07-30T16:28:53.626Z,64.00
2022-07-30T16:31:25.641Z,62.40
2022-07-30T16:33:58.504Z,62.30
2022-07-30T16:36:30.449Z,64.80
2022-07-30T16:39:03.551Z,63.60
2022-07-30T16:41:35.535Z,63.30
2022-07-30T16:44:08.364Z,64.80
2022-07-30T16:46:40.833Z,64.00
2022-07-30T16:49:13.166Z,64.00
2022-07-30T16:51:45.195Z,64.10
2022-07-30T16:54:17.871Z,63.90
2022-07-30T16:56:52.721Z,62.30
2022-07-30T16:59:25.523Z,62.30
2022-07-30T17:01:57.865Z,63.20
2022-07-30T17:04:29.746Z,62.50
2022-07-30T17:07:02.613Z,62.70
2022-07-30T17:09:36.597Z,62.30
2022-07-30T17:12:12.411Z,63.30
2022-07-30T17:14:45.461Z,63.10
2022-07-30T17:17:18.120Z,63.10
2022-07-30T17:19:50.005Z,64.70
2022-07-30T17:22:24.093Z,62.80
2022-07-30T17:24:56.012Z,63.80
2022-07-30T17:27:29.134Z,61.90
2022-07-30T17:30:01.850Z,62.50
2022-07-30T17:32:34.606Z,62.20
2022-07-30T17:35:09.824Z,63.20
2022-07-30T17:37:45.437Z,62.50
2022-07-30T17:40:28.843Z,63.10
2022-07-30T17:43:04.527Z,64.50
2022-07-30T17:45:37.052Z,63.10
2022-07-30T17:48:10.029Z,63.30
2022-07-30T17:50:42.560Z,62.80
2022-07-30T17:53:14.617Z,63.70
2022-07-30T17:55:57.379Z,63.30
2022-07-30T17:58:30.669Z,63.40
2022-07-30T18:01:04.478Z,63.20
2022-07-30T18:03:36.392Z,63.40
2022-07-30T18:06:18.336Z,63.60
2022-07-30T18:11:23.809Z,63.30
2022-07-30T18:13:57.200Z,64.70
2022-07-30T18:16:29.249Z,64.60
2022-07-30T18:19:01.901Z,65.30
2022-07-30T18:21:33.766Z,64.30
2022-07-30T18:24:06.901Z,64.30
2022-07-30T18:26:40.101Z,64.50
2022-07-30T18:29:14.141Z,64.50
2022-07-30T18:31:46.148Z,64.10
2022-07-30T18:34:18.896Z,66.90
2022-07-30T18:36:51.367Z,66.70
2022-07-30T18:39:24.250Z,64.50
2022-07-30T18:41:56.142Z,65.30
2022-07-30T18:44:28.859Z,65.00
2022-07-30T18:47:01.486Z,65.00
2022-07-30T18:49:37.203Z,67.90
2022-07-30T18:52:10.474Z,66.90
2022-07-30T18:54:43.012Z,68.10
2022-07-30T18:57:15.801Z,68.40
2022-07-30T18:59:47.820Z,68.80
2022-07-30T19:02:20.654Z,68.10
2022-07-30T19:04:53.912Z,67.90
2022-07-30T19:07:26.093Z,69.90
2022-07-30T19:09:59.021Z,69.40
2022-07-30T19:12:32.595Z,70.00
2022-07-30T19:15:06.022Z,70.30
2022-07-30T19:17:46.390Z,70.80
2022-07-30T19:20:19.959Z,69.90
2022-07-30T19:23:04.377Z,70.40
2022-07-30T19:25:36.991Z,72.60
2022-07-30T19:28:11.594Z,71.60
2022-07-30T19:30:44.449Z,71.70
2022-07-30T19:33:16.386Z,71.70
2022-07-30T19:35:49.203Z,72.80
2022-07-30T19:38:23.927Z,73.50
2022-07-30T19:40:56.174Z,73.90
2022-07-30T19:43:29.099Z,75.20
2022-07-30T19:46:05.684Z,76.80
2022-07-30T20:04:24.329Z,78.10
2022-07-30T20:12:05.243Z,79.00
2022-07-30T20:19:50.407Z,79.60
2022-07-30T20:24:57.777Z,79.70
2022-07-30T20:43:05.771Z,82.40
2022-07-30T20:48:17.322Z,82.90
2022-07-30T20:58:45.938Z,84.00
2022-07-30T21:01:20.277Z,85.00
2022-07-30T21:03:52.256Z,85.40
2022-07-30T21:06:25.147Z,85.10
2022-07-30T21:08:58.378Z,84.90
2022-07-30T21:11:31.725Z,87.00
2022-07-30T21:14:12.098Z,85.40
2022-07-30T21:16:54.344Z,85.80
2022-07-30T21:19:29.053Z,87.00
2022-07-30T21:22:02.113Z,86.10
2022-07-30T21:24:34.263Z,88.20
2022-07-30T21:27:07.562Z,87.00
2022-07-30T21:29:39.558Z,86.90
2022-07-30T21:32:12.297Z,89.60
2022-07-30T21:34:47.247Z,88.30
2022-07-30T21:37:19.602Z,87.90
2022-07-30T21:39:52.186Z,88.20
2022-07-30T21:42:29.403Z,87.90
2022-07-30T21:45:03.255Z,88.50
2022-07-30T21:47:35.099Z,87.90
2022-07-30T21:50:07.958Z,89.20
2022-07-30T21:52:41.772Z,88.90
2022-07-30T21:57:47.444Z,89.30
2022-07-30T22:00:30.607Z,90.50
2022-07-30T22:03:03.435Z,90.20
2022-07-30T22:05:51.575Z,90.30
2022-07-30T22:08:26.119Z,90.40
2022-07-30T22:10:58.414Z,90.70
2022-07-30T22:13:31.132Z,90.70
2022-07-30T22:16:04.887Z,90.50
2022-07-30T22:18:38.424Z,90.50
2022-07-30T22:21:11.264Z,90.50
2022-07-30T22:23:54.797Z,91.40
2022-07-30T22:26:30.856Z,91.00
2022-07-30T22:29:05.236Z,91.10
2022-07-30T22:31:39.588Z,91.40
2022-07-30T22:34:12.839Z,92.00
2022-07-30T22:36:48.766Z,92.50
2022-07-30T22:39:21.829Z,92.10
2022-07-30T22:41:54.379Z,92.40
2022-07-30T22:44:27.046Z,92.60
2022-07-30T22:46:59.342Z,92.70
2022-07-30T22:49:45.980Z,92.90
2022-07-30T22:52:28.028Z,93.10
2022-07-30T22:55:08.990Z,93.20
2022-07-30T22:57:44.194Z,93.30
2022-07-30T23:00:27.534Z,93.20
2022-07-30T23:03:01.246Z,93.80
2022-07-30T23:05:35.213Z,93.70
2022-07-30T23:08:08.147Z,93.80
2022-07-30T23:10:39.862Z,94.20
2022-07-30T23:13:13.123Z,94.00
2022-07-30T23:15:45.397Z,94.50
2022-07-30T23:18:17.108Z,94.50
2022-07-30T23:20:49.839Z,94.60
2022-07-30T23:23:22.176Z,94.50
2022-07-30T23:25:53.948Z,94.80
2022-07-30T23:28:26.931Z,95.70
2022-07-30T23:30:59.103Z,95.20
2022-07-30T23:33:32.541Z,95.10
2022-07-30T23:36:09.258Z,95.00
2022-07-30T23:38:41.898Z,95.00
2022-07-30T23:41:29.456Z,95.40
2022-07-30T23:44:03.012Z,95.60
2022-07-30T23:46:37.458Z,95.50
2022-07-30T23:49:09.365Z,95.60
2022-07-30T23:51:42.090Z,95.50
2022-07-30T23:54:13.853Z,95.30
2022-07-30T23:56:46.551Z,95.90
2022-07-30T23:59:18.359Z,95.80
